sensor_id;sensor_type;location;lat;lon;timestamp;P1;durP1;ratioP1;P2;durP2;ratioP2
6878;SDS011;3478;51.462;7.338;2022-12-10T00:00:30;49.87;;;26.57;;
6878;SDS011;3478;51.462;7.338;2022-12-10T00:05:32;46.47;;;24.47;;
6878;SDS011;3478;51.462;7.338;2022-12-10T00:10:39;49.27;;;26.47;;
6878;SDS011;3478;51.462;7.338;2022-12-10T00:15:41;43.67;;;24.83;;
6878;SDS011;3478;51.462;7.338;2022-12-10T00:20:43;49.30;;;26.27;;
6878;SDS011;3478;51.462;7.338;2022-12-10T00:25:47;45.83;;;24.70;;
6878;SDS011;3478;51.462;7.338;2022-12-10T00:30:48;41.07;;;25.50;;
6878;SDS011;3478;51.462;7.338;2022-12-10T00:35:50;59.63;;;27.77;;
6878;SDS011;3478;51.462;7.338;2022-12-10T00:40:53;53.77;;;26.67;;
6878;SDS011;3478;51.462;7.338;2022-12-10T00:45:55;49.57;;;25.23;;
6878;SDS011;3478;51.462;7.338;2022-12-10T00:50:58;52.23;;;25.53;;
6878;SDS011;3478;51.462;7.338;2022-12-10T00:56:03;43.87;;;23.97;;
6878;SDS011;3478;51.462;7.338;2022-12-10T01:01:07;56.93;;;27.17;;
6878;SDS011;3478;51.462;7.338;2022-12-10T01:06:11;46.07;;;25.17;;
6878;SDS011;3478;51.462;7.338;2022-12-10T01:11:16;50.60;;;26.03;;
6878;SDS011;3478;51.462;7.338;2022-12-10T01:16:20;47.37;;;24.77;;
6878;SDS011;3478;51.462;7.338;2022-12-10T01:21:23;47.47;;;25.70;;
6878;SDS011;3478;51.462;7.338;2022-12-10T01:26:28;43.77;;;24.63;;
6878;SDS011;3478;51.462;7.338;2022-12-10T01:31:32;45.97;;;24.77;;
6878;SDS011;3478;51.462;7.338;2022-12-10T01:36:36;42.23;;;24.27;;
6878;SDS011;3478;51.462;7.338;2022-12-10T01:41:41;43.97;;;22.63;;
6878;SDS011;3478;51.462;7.338;2022-12-10T01:46:46;46.83;;;24.40;;
6878;SDS011;3478;51.462;7.338;2022-12-10T01:51:50;36.50;;;24.30;;
6878;SDS011;3478;51.462;7.338;2022-12-10T01:56:57;47.40;;;26.00;;
6878;SDS011;3478;51.462;7.338;2022-12-10T02:02:01;50.30;;;26.20;;
6878;SDS011;3478;51.462;7.338;2022-12-10T02:07:12;34.00;;;20.27;;
6878;SDS011;3478;51.462;7.338;2022-12-10T02:12:22;32.97;;;18.13;;
6878;SDS011;3478;51.462;7.338;2022-12-10T02:17:27;35.90;;;19.77;;
6878;SDS011;3478;51.462;7.338;2022-12-10T02:22:34;20.33;;;12.83;;
6878;SDS011;3478;51.462;7.338;2022-12-10T02:27:42;24.50;;;13.50;;
6878;SDS011;3478;51.462;7.338;2022-12-10T02:32:51;17.90;;;11.57;;
6878;SDS011;3478;51.462;7.338;2022-12-10T02:37:55;18.30;;;12.60;;
6878;SDS011;3478;51.462;7.338;2022-12-10T02:43:00;20.27;;;11.53;;
6878;SDS011;3478;51.462;7.338;2022-12-10T02:48:04;21.20;;;12.37;;
6878;SDS011;3478;51.462;7.338;2022-12-10T02:53:06;19.03;;;10.43;;
6878;SDS011;3478;51.462;7.338;2022-12-10T02:58:10;21.97;;;12.10;;
6878;SDS011;3478;51.462;7.338;2022-12-10T03:03:24;15.43;;;10.73;;
6878;SDS011;3478;51.462;7.338;2022-12-10T03:08:34;18.27;;;11.70;;
6878;SDS011;3478;51.462;7.338;2022-12-10T03:13:43;16.53;;;11.43;;
6878;SDS011;3478;51.462;7.338;2022-12-10T03:18:53;17.90;;;10.27;;
6878;SDS011;3478;51.462;7.338;2022-12-10T03:23:58;22.50;;;11.63;;
6878;SDS011;3478;51.462;7.338;2022-12-10T03:29:00;17.87;;;11.10;;
6878;SDS011;3478;51.462;7.338;2022-12-10T03:34:07;24.47;;;14.10;;
6878;SDS011;3478;51.462;7.338;2022-12-10T03:39:10;20.33;;;13.03;;
6878;SDS011;3478;51.462;7.338;2022-12-10T03:44:13;19.03;;;12.27;;
6878;SDS011;3478;51.462;7.338;2022-12-10T03:49:29;18.00;;;10.90;;
6878;SDS011;3478;51.462;7.338;2022-12-10T03:54:31;22.83;;;12.60;;
6878;SDS011;3478;51.462;7.338;2022-12-10T03:59:33;28.13;;;13.10;;
6878;SDS011;3478;51.462;7.338;2022-12-10T04:04:36;22.17;;;13.07;;
6878;SDS011;3478;51.462;7.338;2022-12-10T04:09:38;27.97;;;14.00;;
6878;SDS011;3478;51.462;7.338;2022-12-10T04:14:40;46.07;;;23.33;;
6878;SDS011;3478;51.462;7.338;2022-12-10T04:20:01;33.60;;;20.10;;
6878;SDS011;3478;51.462;7.338;2022-12-10T04:25:03;35.00;;;18.77;;
6878;SDS011;3478;51.462;7.338;2022-12-10T04:30:23;30.00;;;18.00;;
6878;SDS011;3478;51.462;7.338;2022-12-10T04:35:26;32.27;;;18.80;;
6878;SDS011;3478;51.462;7.338;2022-12-10T04:40:28;30.00;;;18.93;;
6878;SDS011;3478;51.462;7.338;2022-12-10T04:45:30;35.57;;;18.67;;
6878;SDS011;3478;51.462;7.338;2022-12-10T04:50:33;35.20;;;19.40;;
6878;SDS011;3478;51.462;7.338;2022-12-10T04:55:34;28.90;;;17.10;;
6878;SDS011;3478;51.462;7.338;2022-12-10T05:00:36;32.80;;;18.53;;
6878;SDS011;3478;51.462;7.338;2022-12-10T05:05:39;34.80;;;17.13;;
6878;SDS011;3478;51.462;7.338;2022-12-10T05:10:41;33.80;;;16.73;;
6878;SDS011;3478;51.462;7.338;2022-12-10T05:15:43;25.80;;;15.10;;
6878;SDS011;3478;51.462;7.338;2022-12-10T05:20:46;26.90;;;15.97;;
6878;SDS011;3478;51.462;7.338;2022-12-10T05:25:48;27.27;;;17.60;;
6878;SDS011;3478;51.462;7.338;2022-12-10T05:30:58;24.57;;;15.30;;
6878;SDS011;3478;51.462;7.338;2022-12-10T05:36:02;26.87;;;16.90;;
6878;SDS011;3478;51.462;7.338;2022-12-10T05:41:05;31.80;;;17.37;;
6878;SDS011;3478;51.462;7.338;2022-12-10T05:46:10;31.00;;;18.47;;
6878;SDS011;3478;51.462;7.338;2022-12-10T05:51:15;31.47;;;17.63;;
6878;SDS011;3478;51.462;7.338;2022-12-10T05:56:19;35.83;;;19.40;;
6878;SDS011;3478;51.462;7.338;2022-12-10T06:01:24;30.47;;;20.40;;
6878;SDS011;3478;51.462;7.338;2022-12-10T06:06:29;40.20;;;21.87;;
6878;SDS011;3478;51.462;7.338;2022-12-10T06:11:32;34.13;;;19.33;;
6878;SDS011;3478;51.462;7.338;2022-12-10T06:16:35;34.77;;;18.87;;
6878;SDS011;3478;51.462;7.338;2022-12-10T06:21:38;35.70;;;22.43;;
6878;SDS011;3478;51.462;7.338;2022-12-10T06:26:40;31.93;;;19.33;;
6878;SDS011;3478;51.462;7.338;2022-12-10T06:31:42;40.93;;;19.90;;
6878;SDS011;3478;51.462;7.338;2022-12-10T06:36:45;33.47;;;17.43;;
6878;SDS011;3478;51.462;7.338;2022-12-10T06:41:46;36.07;;;20.00;;
6878;SDS011;3478;51.462;7.338;2022-12-10T06:46:48;39.57;;;21.37;;
6878;SDS011;3478;51.462;7.338;2022-12-10T06:51:51;37.63;;;21.73;;
6878;SDS011;3478;51.462;7.338;2022-12-10T06:56:53;42.87;;;22.07;;
6878;SDS011;3478;51.462;7.338;2022-12-10T07:01:55;37.23;;;22.20;;
6878;SDS011;3478;51.462;7.338;2022-12-10T07:06:58;40.77;;;22.57;;
6878;SDS011;3478;51.462;7.338;2022-12-10T07:12:00;47.90;;;25.47;;
6878;SDS011;3478;51.462;7.338;2022-12-10T07:17:02;36.97;;;22.80;;
6878;SDS011;3478;51.462;7.338;2022-12-10T07:22:06;42.47;;;22.20;;
6878;SDS011;3478;51.462;7.338;2022-12-10T07:27:08;37.03;;;23.20;;
6878;SDS011;3478;51.462;7.338;2022-12-10T07:32:10;43.05;;;25.40;;
6878;SDS011;3478;51.462;7.338;2022-12-10T07:37:13;42.53;;;23.67;;
6878;SDS011;3478;51.462;7.338;2022-12-10T07:42:15;41.60;;;24.70;;
6878;SDS011;3478;51.462;7.338;2022-12-10T07:47:17;45.40;;;24.70;;
6878;SDS011;3478;51.462;7.338;2022-12-10T07:52:21;36.33;;;22.03;;
6878;SDS011;3478;51.462;7.338;2022-12-10T07:57:22;33.70;;;20.47;;
6878;SDS011;3478;51.462;7.338;2022-12-10T08:02:24;39.47;;;20.73;;
6878;SDS011;3478;51.462;7.338;2022-12-10T08:07:27;38.33;;;20.43;;
6878;SDS011;3478;51.462;7.338;2022-12-10T08:12:29;39.33;;;22.07;;
6878;SDS011;3478;51.462;7.338;2022-12-10T08:17:31;38.67;;;20.97;;
6878;SDS011;3478;51.462;7.338;2022-12-10T08:22:37;34.47;;;19.50;;
6878;SDS011;3478;51.462;7.338;2022-12-10T08:27:39;30.27;;;18.47;;
6878;SDS011;3478;51.462;7.338;2022-12-10T08:32:41;33.97;;;18.60;;
6878;SDS011;3478;51.462;7.338;2022-12-10T08:37:44;33.33;;;19.40;;
6878;SDS011;3478;51.462;7.338;2022-12-10T08:42:46;33.33;;;18.50;;
6878;SDS011;3478;51.462;7.338;2022-12-10T08:47:47;33.10;;;20.10;;
6878;SDS011;3478;51.462;7.338;2022-12-10T08:52:51;33.37;;;18.70;;
6878;SDS011;3478;51.462;7.338;2022-12-10T08:57:52;29.07;;;20.13;;
6878;SDS011;3478;51.462;7.338;2022-12-10T09:02:54;32.03;;;20.53;;
6878;SDS011;3478;51.462;7.338;2022-12-10T09:07:57;33.83;;;17.53;;
6878;SDS011;3478;51.462;7.338;2022-12-10T09:13:01;31.20;;;19.03;;
6878;SDS011;3478;51.462;7.338;2022-12-10T09:18:02;26.27;;;16.83;;
6878;SDS011;3478;51.462;7.338;2022-12-10T09:23:06;27.50;;;19.53;;
6878;SDS011;3478;51.462;7.338;2022-12-10T09:28:08;26.17;;;17.50;;
6878;SDS011;3478;51.462;7.338;2022-12-10T09:33:09;31.93;;;20.93;;
6878;SDS011;3478;51.462;7.338;2022-12-10T09:38:13;38.73;;;22.20;;
6878;SDS011;3478;51.462;7.338;2022-12-10T09:43:16;38.33;;;22.07;;
6878;SDS011;3478;51.462;7.338;2022-12-10T09:48:25;40.17;;;23.20;;
6878;SDS011;3478;51.462;7.338;2022-12-10T09:53:33;44.10;;;23.83;;
6878;SDS011;3478;51.462;7.338;2022-12-10T09:58:39;51.47;;;26.73;;
6878;SDS011;3478;51.462;7.338;2022-12-10T10:03:41;54.80;;;26.03;;
6878;SDS011;3478;51.462;7.338;2022-12-10T10:08:45;50.40;;;27.73;;
6878;SDS011;3478;51.462;7.338;2022-12-10T10:13:49;54.17;;;27.63;;
6878;SDS011;3478;51.462;7.338;2022-12-10T10:18:56;46.90;;;24.27;;
6878;SDS011;3478;51.462;7.338;2022-12-10T10:24:01;65.07;;;31.37;;
6878;SDS011;3478;51.462;7.338;2022-12-10T10:29:04;66.57;;;35.10;;
6878;SDS011;3478;51.462;7.338;2022-12-10T10:34:12;53.70;;;25.20;;
6878;SDS011;3478;51.462;7.338;2022-12-10T10:39:26;51.23;;;26.13;;
6878;SDS011;3478;51.462;7.338;2022-12-10T10:44:33;47.87;;;23.13;;
6878;SDS011;3478;51.462;7.338;2022-12-10T10:49:36;51.40;;;23.70;;
6878;SDS011;3478;51.462;7.338;2022-12-10T10:54:46;54.27;;;27.70;;
6878;SDS011;3478;51.462;7.338;2022-12-10T10:59:49;50.40;;;24.53;;
6878;SDS011;3478;51.462;7.338;2022-12-10T11:04:54;51.83;;;25.33;;
6878;SDS011;3478;51.462;7.338;2022-12-10T11:10:00;53.60;;;23.63;;
6878;SDS011;3478;51.462;7.338;2022-12-10T11:15:24;48.53;;;25.23;;
6878;SDS011;3478;51.462;7.338;2022-12-10T11:20:34;51.63;;;24.70;;
6878;SDS011;3478;51.462;7.338;2022-12-10T11:25:41;51.07;;;24.80;;
6878;SDS011;3478;51.462;7.338;2022-12-10T11:30:53;60.67;;;26.50;;
6878;SDS011;3478;51.462;7.338;2022-12-10T11:36:05;62.97;;;25.03;;
6878;SDS011;3478;51.462;7.338;2022-12-10T11:41:21;65.77;;;29.17;;
6878;SDS011;3478;51.462;7.338;2022-12-10T11:46:35;58.23;;;30.97;;
6878;SDS011;3478;51.462;7.338;2022-12-10T11:51:50;71.73;;;29.93;;
6878;SDS011;3478;51.462;7.338;2022-12-10T11:57:03;63.17;;;29.00;;
6878;SDS011;3478;51.462;7.338;2022-12-10T12:02:21;63.97;;;31.33;;
6878;SDS011;3478;51.462;7.338;2022-12-10T12:07:38;65.23;;;30.77;;
6878;SDS011;3478;51.462;7.338;2022-12-10T12:12:44;61.03;;;27.10;;
6878;SDS011;3478;51.462;7.338;2022-12-10T12:17:55;57.20;;;25.77;;
6878;SDS011;3478;51.462;7.338;2022-12-10T12:23:02;60.70;;;29.43;;
6878;SDS011;3478;51.462;7.338;2022-12-10T12:28:11;64.17;;;28.40;;
6878;SDS011;3478;51.462;7.338;2022-12-10T12:33:16;49.80;;;25.90;;
6878;SDS011;3478;51.462;7.338;2022-12-10T12:38:30;66.80;;;29.63;;
6878;SDS011;3478;51.462;7.338;2022-12-10T12:43:40;60.00;;;30.43;;
6878;SDS011;3478;51.462;7.338;2022-12-10T12:48:51;61.70;;;29.97;;
6878;SDS011;3478;51.462;7.338;2022-12-10T12:53:57;60.43;;;27.27;;
6878;SDS011;3478;51.462;7.338;2022-12-10T12:59:03;55.00;;;26.20;;
6878;SDS011;3478;51.462;7.338;2022-12-10T13:04:10;75.00;;;30.63;;
6878;SDS011;3478;51.462;7.338;2022-12-10T13:09:18;55.93;;;26.83;;
6878;SDS011;3478;51.462;7.338;2022-12-10T13:14:32;59.73;;;27.00;;
6878;SDS011;3478;51.462;7.338;2022-12-10T13:19:35;62.93;;;27.67;;
6878;SDS011;3478;51.462;7.338;2022-12-10T13:24:44;59.90;;;28.13;;
6878;SDS011;3478;51.462;7.338;2022-12-10T13:29:54;60.43;;;26.77;;
6878;SDS011;3478;51.462;7.338;2022-12-10T13:40:37;65.37;;;30.13;;
6878;SDS011;3478;51.462;7.338;2022-12-10T13:51:26;58.93;;;27.40;;
6878;SDS011;3478;51.462;7.338;2022-12-10T13:56:39;85.33;;;40.37;;
6878;SDS011;3478;51.462;7.338;2022-12-10T14:01:48;54.70;;;29.20;;
6878;SDS011;3478;51.462;7.338;2022-12-10T14:06:56;53.37;;;27.37;;
6878;SDS011;3478;51.462;7.338;2022-12-10T14:11:59;60.27;;;29.97;;
6878;SDS011;3478;51.462;7.338;2022-12-10T14:17:06;56.00;;;26.83;;
6878;SDS011;3478;51.462;7.338;2022-12-10T14:22:14;59.00;;;30.20;;
6878;SDS011;3478;51.462;7.338;2022-12-10T14:27:20;55.60;;;27.53;;
6878;SDS011;3478;51.462;7.338;2022-12-10T14:32:29;59.00;;;31.83;;
6878;SDS011;3478;51.462;7.338;2022-12-10T14:37:34;58.30;;;26.13;;
6878;SDS011;3478;51.462;7.338;2022-12-10T14:42:38;57.17;;;28.60;;
6878;SDS011;3478;51.462;7.338;2022-12-10T14:47:42;77.33;;;38.70;;
6878;SDS011;3478;51.462;7.338;2022-12-10T14:52:44;59.83;;;24.40;;
6878;SDS011;3478;51.462;7.338;2022-12-10T14:57:51;48.90;;;24.60;;
6878;SDS011;3478;51.462;7.338;2022-12-10T15:02:59;60.70;;;29.50;;
6878;SDS011;3478;51.462;7.338;2022-12-10T15:08:03;59.37;;;27.10;;
6878;SDS011;3478;51.462;7.338;2022-12-10T15:13:08;60.17;;;28.07;;
6878;SDS011;3478;51.462;7.338;2022-12-10T15:18:25;63.00;;;29.77;;
6878;SDS011;3478;51.462;7.338;2022-12-10T15:23:33;65.90;;;30.93;;
6878;SDS011;3478;51.462;7.338;2022-12-10T15:28:37;54.70;;;27.50;;
6878;SDS011;3478;51.462;7.338;2022-12-10T15:33:43;52.37;;;28.77;;
6878;SDS011;3478;51.462;7.338;2022-12-10T15:38:47;60.63;;;29.50;;
6878;SDS011;3478;51.462;7.338;2022-12-10T15:43:51;70.73;;;30.00;;
6878;SDS011;3478;51.462;7.338;2022-12-10T15:48:59;67.33;;;31.33;;
6878;SDS011;3478;51.462;7.338;2022-12-10T15:54:01;65.87;;;28.37;;
6878;SDS011;3478;51.462;7.338;2022-12-10T15:59:19;59.27;;;29.30;;
6878;SDS011;3478;51.462;7.338;2022-12-10T16:04:22;59.33;;;29.90;;
6878;SDS011;3478;51.462;7.338;2022-12-10T16:09:24;62.33;;;29.93;;
6878;SDS011;3478;51.462;7.338;2022-12-10T16:14:26;64.77;;;32.20;;
6878;SDS011;3478;51.462;7.338;2022-12-10T16:19:29;68.97;;;33.30;;
6878;SDS011;3478;51.462;7.338;2022-12-10T16:24:31;67.80;;;33.30;;
6878;SDS011;3478;51.462;7.338;2022-12-10T16:29:33;74.93;;;32.93;;
6878;SDS011;3478;51.462;7.338;2022-12-10T16:34:36;76.23;;;28.17;;
6878;SDS011;3478;51.462;7.338;2022-12-10T16:39:38;75.50;;;32.23;;
6878;SDS011;3478;51.462;7.338;2022-12-10T16:44:41;71.63;;;30.60;;
6878;SDS011;3478;51.462;7.338;2022-12-10T16:49:44;65.83;;;28.17;;
6878;SDS011;3478;51.462;7.338;2022-12-10T16:54:46;62.27;;;28.27;;
6878;SDS011;3478;51.462;7.338;2022-12-10T16:59:48;58.17;;;29.57;;
6878;SDS011;3478;51.462;7.338;2022-12-10T17:04:51;65.10;;;28.67;;
6878;SDS011;3478;51.462;7.338;2022-12-10T17:09:53;66.53;;;32.30;;
6878;SDS011;3478;51.462;7.338;2022-12-10T17:14:54;72.13;;;31.40;;
6878;SDS011;3478;51.462;7.338;2022-12-10T17:19:58;61.73;;;28.63;;
6878;SDS011;3478;51.462;7.338;2022-12-10T17:24:59;70.77;;;28.27;;
6878;SDS011;3478;51.462;7.338;2022-12-10T17:30:01;62.77;;;28.77;;
6878;SDS011;3478;51.462;7.338;2022-12-10T17:35:05;49.60;;;25.27;;
6878;SDS011;3478;51.462;7.338;2022-12-10T17:40:10;55.67;;;26.53;;
6878;SDS011;3478;51.462;7.338;2022-12-10T17:45:17;43.07;;;20.67;;
6878;SDS011;3478;51.462;7.338;2022-12-10T17:50:23;53.47;;;25.67;;
6878;SDS011;3478;51.462;7.338;2022-12-10T17:55:29;55.83;;;23.30;;
6878;SDS011;3478;51.462;7.338;2022-12-10T18:00:32;62.70;;;29.50;;
6878;SDS011;3478;51.462;7.338;2022-12-10T18:05:37;60.87;;;27.10;;
6878;SDS011;3478;51.462;7.338;2022-12-10T18:10:39;51.00;;;27.53;;
6878;SDS011;3478;51.462;7.338;2022-12-10T18:15:41;47.60;;;23.53;;
6878;SDS011;3478;51.462;7.338;2022-12-10T18:20:45;55.53;;;30.10;;
6878;SDS011;3478;51.462;7.338;2022-12-10T18:25:47;49.57;;;24.20;;
6878;SDS011;3478;51.462;7.338;2022-12-10T18:30:50;46.00;;;21.17;;
6878;SDS011;3478;51.462;7.338;2022-12-10T18:35:56;50.73;;;24.40;;
6878;SDS011;3478;51.462;7.338;2022-12-10T18:40:57;46.13;;;21.67;;
6878;SDS011;3478;51.462;7.338;2022-12-10T18:45:59;118.20;;;48.30;;
6878;SDS011;3478;51.462;7.338;2022-12-10T18:51:02;55.23;;;25.47;;
6878;SDS011;3478;51.462;7.338;2022-12-10T18:56:04;54.70;;;25.30;;
6878;SDS011;3478;51.462;7.338;2022-12-10T19:01:07;55.27;;;25.47;;
6878;SDS011;3478;51.462;7.338;2022-12-10T19:06:12;54.27;;;24.60;;
6878;SDS011;3478;51.462;7.338;2022-12-10T19:11:15;63.47;;;27.70;;
6878;SDS011;3478;51.462;7.338;2022-12-10T19:16:19;50.30;;;22.80;;
6878;SDS011;3478;51.462;7.338;2022-12-10T19:21:25;57.30;;;27.10;;
6878;SDS011;3478;51.462;7.338;2022-12-10T19:26:28;53.30;;;23.13;;
6878;SDS011;3478;51.462;7.338;2022-12-10T19:31:31;61.53;;;26.67;;
6878;SDS011;3478;51.462;7.338;2022-12-10T19:36:35;55.83;;;24.93;;
6878;SDS011;3478;51.462;7.338;2022-12-10T19:41:37;49.97;;;22.33;;
6878;SDS011;3478;51.462;7.338;2022-12-10T19:46:38;57.50;;;24.50;;
6878;SDS011;3478;51.462;7.338;2022-12-10T19:51:42;69.57;;;27.47;;
6878;SDS011;3478;51.462;7.338;2022-12-10T19:56:44;47.03;;;23.60;;
6878;SDS011;3478;51.462;7.338;2022-12-10T20:01:46;54.83;;;24.70;;
6878;SDS011;3478;51.462;7.338;2022-12-10T20:06:49;53.50;;;26.20;;
6878;SDS011;3478;51.462;7.338;2022-12-10T20:11:51;57.77;;;26.30;;
6878;SDS011;3478;51.462;7.338;2022-12-10T20:16:53;52.43;;;22.10;;
6878;SDS011;3478;51.462;7.338;2022-12-10T20:21:56;50.47;;;22.93;;
6878;SDS011;3478;51.462;7.338;2022-12-10T20:26:58;44.93;;;23.27;;
6878;SDS011;3478;51.462;7.338;2022-12-10T20:31:59;56.73;;;24.70;;
6878;SDS011;3478;51.462;7.338;2022-12-10T20:37:04;43.40;;;19.30;;
6878;SDS011;3478;51.462;7.338;2022-12-10T20:42:06;34.73;;;17.80;;
6878;SDS011;3478;51.462;7.338;2022-12-10T20:47:09;43.23;;;21.13;;
6878;SDS011;3478;51.462;7.338;2022-12-10T20:52:13;66.00;;;28.67;;
6878;SDS011;3478;51.462;7.338;2022-12-10T20:57:15;44.10;;;22.03;;
6878;SDS011;3478;51.462;7.338;2022-12-10T21:02:17;51.10;;;21.33;;
6878;SDS011;3478;51.462;7.338;2022-12-10T21:07:20;56.17;;;24.50;;
6878;SDS011;3478;51.462;7.338;2022-12-10T21:12:22;53.97;;;22.40;;
6878;SDS011;3478;51.462;7.338;2022-12-10T21:17:24;50.13;;;23.40;;
6878;SDS011;3478;51.462;7.338;2022-12-10T21:22:27;51.70;;;22.40;;
6878;SDS011;3478;51.462;7.338;2022-12-10T21:27:30;39.90;;;20.63;;
6878;SDS011;3478;51.462;7.338;2022-12-10T21:32:31;45.70;;;20.77;;
6878;SDS011;3478;51.462;7.338;2022-12-10T21:37:35;61.60;;;22.73;;
6878;SDS011;3478;51.462;7.338;2022-12-10T21:42:37;48.97;;;22.77;;
6878;SDS011;3478;51.462;7.338;2022-12-10T21:47:56;50.70;;;20.10;;
6878;SDS011;3478;51.462;7.338;2022-12-10T21:53:01;40.90;;;18.10;;
6878;SDS011;3478;51.462;7.338;2022-12-10T21:58:03;42.30;;;19.10;;
6878;SDS011;3478;51.462;7.338;2022-12-10T22:03:04;39.00;;;17.20;;
6878;SDS011;3478;51.462;7.338;2022-12-10T22:08:08;38.30;;;17.93;;
6878;SDS011;3478;51.462;7.338;2022-12-10T22:13:10;38.07;;;18.70;;
6878;SDS011;3478;51.462;7.338;2022-12-10T22:18:11;41.97;;;18.33;;
6878;SDS011;3478;51.462;7.338;2022-12-10T22:23:15;36.10;;;17.90;;
6878;SDS011;3478;51.462;7.338;2022-12-10T22:28:17;47.80;;;19.93;;
6878;SDS011;3478;51.462;7.338;2022-12-10T22:33:18;46.70;;;23.03;;
6878;SDS011;3478;51.462;7.338;2022-12-10T22:38:22;39.83;;;18.97;;
6878;SDS011;3478;51.462;7.338;2022-12-10T22:43:24;45.80;;;20.40;;
6878;SDS011;3478;51.462;7.338;2022-12-10T22:48:25;44.77;;;22.43;;
6878;SDS011;3478;51.462;7.338;2022-12-10T22:53:29;40.30;;;19.63;;
6878;SDS011;3478;51.462;7.338;2022-12-10T22:58:30;33.50;;;17.30;;
6878;SDS011;3478;51.462;7.338;2022-12-10T23:03:33;43.13;;;18.77;;
6878;SDS011;3478;51.462;7.338;2022-12-10T23:08:36;38.73;;;17.20;;
6878;SDS011;3478;51.462;7.338;2022-12-10T23:13:38;47.90;;;18.93;;
6878;SDS011;3478;51.462;7.338;2022-12-10T23:18:40;41.40;;;17.47;;
6878;SDS011;3478;51.462;7.338;2022-12-10T23:23:44;29.80;;;17.30;;
6878;SDS011;3478;51.462;7.338;2022-12-10T23:28:46;34.80;;;18.13;;
6878;SDS011;3478;51.462;7.338;2022-12-10T23:33:49;43.63;;;23.03;;
6878;SDS011;3478;51.462;7.338;2022-12-10T23:38:52;40.40;;;18.80;;
6878;SDS011;3478;51.462;7.338;2022-12-10T23:43:54;48.50;;;18.57;;
6878;SDS011;3478;51.462;7.338;2022-12-10T23:48:59;38.67;;;20.27;;
6878;SDS011;3478;51.462;7.338;2022-12-10T23:54:02;43.43;;;20.53;;
6878;SDS011;3478;51.462;7.338;2022-12-10T23:59:04;51.10;;;20.90;;
